Fairbanks, AK (99701)

9:47 AM AKST on February 07, 2016 (GMT -0900)
KAKFAIRB24 | | Change Station
CLOSE
Current Station
Personal Weather Station
Location: Fairbanks, AK
Elevation: 540 ft
Nearby Weather Stations
Active Advisory: Dense Fog Advisory

Elev 540 ft 64.81 °N, 147.70 °W | Updated 2 minutes ago

Haze
Haze
-3.5 °F
Feels Like -3 °F
N
0.0
Wind Variable Wind from ENE
Gusts 0.0 mph

Today
High -- | Low -- °F
--% Chance of Precip.
Yesterday
High -- | Low -- °F
Precip. -- in
Pressure 30.07 in
Visibility 6.0 miles
Clouds Clear
Windchill -3 °F
Dew Point -7 °F
Humidity 86%
Rainfall 0.00 in
Snow Depth Not available.
9:17 AM 4:53 PM
Waning Crescent, 1% visible
METAR PAFB 071758Z AUTO 00000KT 6SM HZ CLR M23/M26 A3001 RMK AO2 SLP181 T12321257 11206 21235 57004 $
Pressure 30.07 in
Visibility 6.0 miles
Clouds Clear
Windchill -3 °F
Dew Point -7 °F
Humidity 86%
Rainfall 0.00 in
Snow Depth Not available.
9:17 AM 4:53 PM
Waning Crescent, 1% visible
METAR PAFB 071758Z AUTO 00000KT 6SM HZ CLR M23/M26 A3001 RMK AO2 SLP181 T12321257 11206 21235 57004 $

10-Day Weather Forecast

Almanac

Astronomy

Feb. 07, 2016 Rise Set
Actual Time
Civil Twilight
Nautical Twilight
Astronomical Twilight
Moon
Length of Visible Light
Length of Day
Tomorrow will be .
, % of the Moon is Illuminated

Today's Extremes

State Highs State Lows

Community

WunderPhotos

Upload Photos

1,891,280 photos uploaded!

WunderBlog® & News

Nearby

Air Quality

  Air Quality AQ Index Pollutant
Not available.

Snow Depth

Station Depth Elevation

Earthquake Activity

City Distance Mag. Time & Date
Minimum magnitude displayed is 2.5.

Coastal Water Temperatures

Place Temperature

Stations

Nearby Weather Stations

Station Location Temp. Windchill Dew Point Humidity Wind Precip. Elev Updated Type
                   

Watches & Warnings

Dense Fog Advisory
Issued: 6:43 AM AKST Feb. 7, 2016 – National Weather Service

... Dense fog advisory in effect until 10 am akst this morning...

The National Weather Service in Fairbanks has issued a dense fog
advisory... which is in effect until 10 am akst this morning.

* Visibility... one quarter mile or less.

* Timing... dense fog will gradually thin after sunrise.

Precautionary/preparedness actions...

A dense fog advisory means visibilities are frequently reduced to
near zero. Reduce vehicle speed when driving and use low beam
headlights.